createdAt,value
2022-11-04T00:02:09.749Z,18.00
2022-11-04T00:04:39.509Z,18.08
2022-11-04T00:07:27.765Z,17.67
2022-11-04T00:09:55.964Z,17.70
2022-11-04T00:12:25.936Z,19.10
2022-11-04T00:14:54.406Z,17.45
2022-11-04T00:17:24.616Z,18.25
2022-11-04T00:20:13.434Z,18.88
2022-11-04T00:23:01.398Z,19.58
2022-11-04T00:25:47.137Z,19.55
2022-11-04T00:28:34.138Z,19.38
2022-11-04T00:31:24.224Z,18.45
2022-11-04T00:33:52.770Z,19.75
2022-11-04T00:36:24.435Z,19.40
2022-11-04T00:38:52.626Z,21.25
2022-11-04T00:41:30.487Z,20.10
2022-11-04T00:44:00.191Z,18.48
2022-11-04T00:46:29.111Z,19.48
2022-11-04T00:48:57.528Z,20.00
2022-11-04T00:51:27.784Z,20.52
2022-11-04T00:53:58.178Z,21.17
2022-11-04T00:56:26.698Z,20.75
2022-11-04T00:58:54.849Z,20.75
2022-11-04T01:01:23.449Z,22.35
2022-11-04T01:03:54.062Z,21.42
2022-11-04T01:06:23.754Z,22.05
2022-11-04T01:08:57.126Z,20.48
2022-11-04T01:11:25.388Z,20.92
2022-11-04T01:13:53.930Z,20.70
2022-11-04T01:16:22.437Z,22.75
2022-11-04T01:18:50.839Z,22.70
2022-11-04T01:21:19.376Z,21.55
2022-11-04T01:23:48.353Z,21.83
2022-11-04T01:26:19.989Z,22.75
2022-11-04T01:28:48.798Z,21.52
2022-11-04T01:31:19.119Z,22.05
2022-11-04T01:33:47.239Z,21.73
2022-11-04T01:36:15.515Z,21.10
2022-11-04T01:38:43.694Z,24.38
2022-11-04T01:41:20.815Z,22.83
2022-11-04T01:43:52.415Z,22.27
2022-11-04T01:46:33.828Z,21.48
2022-11-04T01:49:07.531Z,21.02
2022-11-04T02:58:34.579Z,22.48
2022-11-04T03:01:05.467Z,21.85
2022-11-04T03:03:38.825Z,25.70
2022-11-04T03:06:11.490Z,22.58
2022-11-04T03:08:42.532Z,22.02
2022-11-04T03:11:15.434Z,25.75
2022-11-04T03:13:49.500Z,24.60
2022-11-04T03:16:20.961Z,26.10
2022-11-04T03:18:58.532Z,22.65
2022-11-04T03:21:28.790Z,25.45
2022-11-04T03:23:57.175Z,23.63
2022-11-04T03:26:31.154Z,24.17
2022-11-04T03:29:13.418Z,24.48
2022-11-04T03:31:46.468Z,23.88
2022-11-04T03:34:14.695Z,24.48
2022-11-04T03:36:43.025Z,24.05
2022-11-04T03:39:11.532Z,24.05
2022-11-04T03:41:44.104Z,26.45
2022-11-04T03:44:13.924Z,23.80
2022-11-04T03:46:42.791Z,24.70
2022-11-04T03:49:13.544Z,25.17
2022-11-04T03:51:41.805Z,25.13
2022-11-04T03:54:10.215Z,26.13
2022-11-04T03:57:02.200Z,25.20
2022-11-04T03:59:46.769Z,23.23
2022-11-04T04:02:19.104Z,24.08
2022-11-04T04:04:56.886Z,25.75
2022-11-04T04:07:30.971Z,27.00
2022-11-04T04:10:25.689Z,26.15
2022-11-04T04:12:57.495Z,23.52
2022-11-04T04:15:32.027Z,25.13
2022-11-04T04:18:04.316Z,26.52
2022-11-04T04:20:36.749Z,25.33
2022-11-04T04:23:29.759Z,26.30
2022-11-04T04:26:19.364Z,27.60
2022-11-04T04:28:48.149Z,26.45
2022-11-04T04:31:39.539Z,26.35
2022-11-04T04:34:08.581Z,24.42
2022-11-04T04:36:45.908Z,27.42
2022-11-04T04:39:35.582Z,27.55
2022-11-04T04:42:21.572Z,26.85
2022-11-04T04:45:01.684Z,26.95
2022-11-04T04:47:37.603Z,25.85
2022-11-04T04:50:06.820Z,28.00
2022-11-04T04:52:38.277Z,26.55
2022-11-04T04:55:07.480Z,27.85
2022-11-04T04:57:35.978Z,26.27
2022-11-04T05:00:06.502Z,27.23
2022-11-04T05:02:36.337Z,24.98
2022-11-04T05:05:05.333Z,27.13
2022-11-04T05:07:33.674Z,27.90
2022-11-04T05:10:01.959Z,25.67
2022-11-04T05:12:50.209Z,28.00
2022-11-04T05:15:18.574Z,25.60
2022-11-04T05:17:48.275Z,26.08
2022-11-04T05:20:16.742Z,27.48
2022-11-04T05:22:45.046Z,26.73
2022-11-04T05:25:13.254Z,26.92
2022-11-04T05:27:41.489Z,25.80
2022-11-04T05:30:10.741Z,27.35
2022-11-04T05:32:39.282Z,26.30
2022-11-04T05:35:09.527Z,23.30
2022-11-04T05:37:37.706Z,23.30
2022-11-04T05:40:06.897Z,25.13
2022-11-04T05:42:36.846Z,24.10
2022-11-04T05:45:06.132Z,22.88
2022-11-04T05:47:34.402Z,21.58
2022-11-04T05:50:02.654Z,21.35
2022-11-04T05:52:32.426Z,20.30
2022-11-04T05:55:00.555Z,21.80
2022-11-04T05:57:28.759Z,21.85
2022-11-04T05:59:56.992Z,21.55
2022-11-04T06:02:25.362Z,21.67
2022-11-04T06:04:53.649Z,22.13
2022-11-04T06:07:21.864Z,19.95
2022-11-04T06:09:51.639Z,20.90
2022-11-04T06:12:19.804Z,20.67
2022-11-04T06:14:48.007Z,20.85
2022-11-04T06:17:17.337Z,20.92
2022-11-04T06:19:45.597Z,22.30
2022-11-04T06:22:16.277Z,20.92
2022-11-04T06:24:45.345Z,22.17
2022-11-04T06:27:42.728Z,22.33
2022-11-04T06:30:23.755Z,21.73
2022-11-04T06:32:55.169Z,23.00
2022-11-04T06:35:23.844Z,23.80
2022-11-04T06:37:54.592Z,24.27
2022-11-04T06:40:25.219Z,23.25
2022-11-04T06:43:05.867Z,24.33
2022-11-04T06:45:56.846Z,23.35
2022-11-04T06:48:45.637Z,25.30
2022-11-04T06:51:41.902Z,22.95
2022-11-04T06:54:24.731Z,23.50
2022-11-04T06:57:08.263Z,24.85
2022-11-04T06:59:38.123Z,23.25
2022-11-04T07:02:06.831Z,25.02
2022-11-04T07:04:35.413Z,24.02
2022-11-04T07:07:03.783Z,25.85
2022-11-04T07:10:29.913Z,24.15
2022-11-04T07:13:24.967Z,24.95
2022-11-04T07:19:04.340Z,24.90
2022-11-04T07:22:29.620Z,27.00
2022-11-04T07:28:15.540Z,28.80
2022-11-04T07:31:05.655Z,27.52
2022-11-04T07:36:34.157Z,29.20
2022-11-04T07:42:40.131Z,31.30
2022-11-04T07:45:23.708Z,29.63
2022-11-04T07:48:27.438Z,31.40
2022-11-04T07:52:36.625Z,30.55
2022-11-04T07:54:53.666Z,35.38
2022-11-04T07:57:22.747Z,31.52
2022-11-04T07:59:59.014Z,31.92
2022-11-04T08:02:50.839Z,32.90
2022-11-04T08:05:27.291Z,31.83
2022-11-04T08:07:57.845Z,32.50
2022-11-04T08:13:50.639Z,36.78
2022-11-04T08:16:33.929Z,38.45
2022-11-04T08:22:14.726Z,34.58
2022-11-04T08:24:47.365Z,35.67
2022-11-04T08:27:18.721Z,36.35
2022-11-04T08:29:54.573Z,37.72
2022-11-04T08:32:23.082Z,38.05
2022-11-04T08:34:51.911Z,35.78
2022-11-04T08:37:20.572Z,35.72
2022-11-04T08:39:51.423Z,37.55
2022-11-04T08:42:23.506Z,37.45
2022-11-04T08:44:53.051Z,37.80
2022-11-04T08:47:25.025Z,36.67
2022-11-04T08:49:55.545Z,36.42
2022-11-04T08:52:24.456Z,36.05
2022-11-04T08:54:57.402Z,36.67
2022-11-04T08:57:27.617Z,33.50
2022-11-04T08:59:56.182Z,35.92
2022-11-04T09:02:24.630Z,35.67
2022-11-04T09:04:52.853Z,36.15
2022-11-04T09:07:21.247Z,34.75
2022-11-04T09:09:51.513Z,35.08
2022-11-04T09:12:19.742Z,35.72
2022-11-04T09:14:54.019Z,35.00
2022-11-04T09:17:23.788Z,33.42
2022-11-04T09:19:57.240Z,33.60
2022-11-04T09:22:26.171Z,33.72
2022-11-04T09:24:54.489Z,36.80
2022-11-04T09:27:22.763Z,35.78
2022-11-04T09:29:52.531Z,35.05
2022-11-04T09:32:20.726Z,32.15
2022-11-04T09:34:48.874Z,33.85
2022-11-04T09:37:17.195Z,31.45
2022-11-04T09:39:49.970Z,33.17
2022-11-04T09:42:37.855Z,33.35
2022-11-04T09:45:21.483Z,34.25
2022-11-04T09:47:52.202Z,30.95
2022-11-04T09:50:24.427Z,32.58
2022-11-04T09:53:00.215Z,33.03
2022-11-04T09:55:36.369Z,32.28
2022-11-04T09:58:05.157Z,33.08
2022-11-04T10:00:39.444Z,32.15
2022-11-04T10:03:21.999Z,31.27
2022-11-04T10:06:05.523Z,31.75
2022-11-04T10:08:48.678Z,30.65
2022-11-04T10:11:25.155Z,32.13
2022-11-04T10:14:12.607Z,32.13
2022-11-04T10:16:58.821Z,30.58
2022-11-04T10:19:37.963Z,30.33
2022-11-04T10:22:12.487Z,31.38
2022-11-04T10:24:44.100Z,31.20
2022-11-04T10:27:18.359Z,28.52
2022-11-04T10:29:53.026Z,30.27
2022-11-04T10:32:29.814Z,27.83
2022-11-04T10:35:02.152Z,26.98
2022-11-04T10:37:30.896Z,24.92
2022-11-04T10:40:23.273Z,24.73
2022-11-04T10:42:59.543Z,20.00
2022-11-04T10:45:36.247Z,19.90
2022-11-04T10:48:13.920Z,18.58
2022-11-04T10:50:47.453Z,18.35
2022-11-04T10:53:17.484Z,17.50
2022-11-04T10:55:54.781Z,16.17
2022-11-04T10:58:26.085Z,16.83
2022-11-04T11:00:55.419Z,15.65
2022-11-04T11:03:31.158Z,17.30
2022-11-04T11:06:14.884Z,16.92
2022-11-04T11:09:28.539Z,16.17
2022-11-04T11:12:51.913Z,17.42
2022-11-04T11:15:58.960Z,14.05
2022-11-04T11:18:57.069Z,13.32
2022-11-04T11:22:14.805Z,12.98
2022-11-04T11:25:16.954Z,13.20
2022-11-04T11:28:14.866Z,12.68
2022-11-04T11:31:23.528Z,10.95
2022-11-04T11:34:26.467Z,11.02
2022-11-04T11:37:31.163Z,11.27
2022-11-04T11:40:29.277Z,10.52
2022-11-04T11:43:27.094Z,9.88
2022-11-04T11:46:28.054Z,9.07
2022-11-04T11:49:29.217Z,12.40
2022-11-04T11:52:45.655Z,9.13
2022-11-04T11:55:57.365Z,9.13
2022-11-04T12:11:50.927Z,5.22
2022-11-04T12:14:25.296Z,4.68
2022-11-04T12:16:59.915Z,4.35
2022-11-04T12:20:24.835Z,3.85
2022-11-04T12:23:32.173Z,2.70
2022-11-04T12:26:33.103Z,2.42
2022-11-04T12:29:46.123Z,2.92
2022-11-04T12:32:29.121Z,1.70
2022-11-04T12:35:12.155Z,1.60
2022-11-04T12:37:55.412Z,1.80
2022-11-04T12:40:28.846Z,1.50
2022-11-04T12:43:11.772Z,1.65
2022-11-04T12:45:51.129Z,1.35
2022-11-04T12:48:37.352Z,1.50
2022-11-04T12:51:16.554Z,1.80
2022-11-04T12:54:07.283Z,1.65
2022-11-04T12:56:38.888Z,1.20
2022-11-04T12:59:30.684Z,1.50
2022-11-04T13:02:03.675Z,2.17
2022-11-04T13:04:39.939Z,1.15
2022-11-04T13:07:15.512Z,1.52
2022-11-04T13:09:48.710Z,1.48
2022-11-04T13:12:19.862Z,1.60
2022-11-04T13:14:52.899Z,1.67
2022-11-04T13:17:27.738Z,1.67
2022-11-04T13:20:02.265Z,1.60
2022-11-04T13:22:34.051Z,2.00
2022-11-04T13:25:06.719Z,1.80
2022-11-04T13:27:38.703Z,1.55
2022-11-04T13:30:20.717Z,1.90
2022-11-04T13:32:57.745Z,2.03
2022-11-04T13:35:38.399Z,1.67
2022-11-04T13:38:16.170Z,1.88
2022-11-04T13:40:51.509Z,1.65
2022-11-04T13:43:41.926Z,1.67
2022-11-04T13:46:33.052Z,1.52
2022-11-04T13:49:05.797Z,1.67
2022-11-04T13:51:47.365Z,2.05
2022-11-04T13:54:30.185Z,1.70
2022-11-04T13:57:13.764Z,1.55
2022-11-04T13:59:44.339Z,1.25
2022-11-04T14:02:41.283Z,1.73
2022-11-04T14:05:42.820Z,1.00
2022-11-04T14:08:14.647Z,1.10
2022-11-04T14:10:58.773Z,1.15
2022-11-04T14:13:47.817Z,0.85
2022-11-04T14:16:42.339Z,0.90
2022-11-04T14:19:58.012Z,0.52
2022-11-04T14:22:32.330Z,0.60
2022-11-04T14:25:04.077Z,0.70
2022-11-04T14:27:41.189Z,0.50
2022-11-04T14:30:33.748Z,0.47
2022-11-04T14:33:05.189Z,0.75
2022-11-04T14:35:34.354Z,0.75
2022-11-04T14:38:08.639Z,0.40
2022-11-04T14:40:52.342Z,0.60
2022-11-04T14:43:32.205Z,0.50
2022-11-04T14:46:02.669Z,0.50
2022-11-04T14:48:32.328Z,0.50
2022-11-04T14:51:06.353Z,0.65
2022-11-04T14:53:38.383Z,0.47
2022-11-04T14:56:23.574Z,0.17
2022-11-04T14:59:00.406Z,0.60
2022-11-04T15:01:34.991Z,0.52
2022-11-04T15:04:12.215Z,0.65
2022-11-04T15:06:54.511Z,0.90
2022-11-04T15:09:29.548Z,2.03
2022-11-04T15:12:29.783Z,0.40
2022-11-04T15:15:01.260Z,0.60
2022-11-04T15:17:35.023Z,0.50
2022-11-04T15:20:05.519Z,0.60
2022-11-04T15:22:34.107Z,0.55
2022-11-04T15:25:14.586Z,0.75
2022-11-04T15:27:45.470Z,0.70
2022-11-04T15:30:23.478Z,0.63
2022-11-04T15:32:59.073Z,0.77
2022-11-04T15:35:29.577Z,0.40
2022-11-04T15:37:59.226Z,0.88
2022-11-04T15:40:39.614Z,0.73
2022-11-04T15:43:12.179Z,0.60
2022-11-04T15:45:55.140Z,0.30
2022-11-04T15:48:31.702Z,0.75
2022-11-04T15:51:12.837Z,0.75
2022-11-04T15:56:52.441Z,0.32
2022-11-04T15:59:27.327Z,0.80
2022-11-04T16:02:06.932Z,0.90
2022-11-04T16:04:38.768Z,1.05
2022-11-04T16:10:41.380Z,0.98
2022-11-04T16:13:25.977Z,1.00
2022-11-04T16:16:17.817Z,1.00
2022-11-04T16:18:53.005Z,1.20
2022-11-04T16:21:31.772Z,1.17
2022-11-04T16:24:10.956Z,1.42
2022-11-04T16:29:48.057Z,1.00
2022-11-04T16:32:21.585Z,0.52
2022-11-04T16:34:54.545Z,1.15
2022-11-04T16:38:17.362Z,0.85
2022-11-04T16:40:48.861Z,0.30
2022-11-04T16:43:20.683Z,0.90
2022-11-04T16:45:57.240Z,0.82
2022-11-04T16:48:31.070Z,0.35
2022-11-04T16:51:01.319Z,0.50
2022-11-04T16:53:30.226Z,0.60
2022-11-04T16:56:05.366Z,0.50
2022-11-04T16:58:43.560Z,0.60
2022-11-04T17:01:21.434Z,0.82
2022-11-04T17:04:19.185Z,0.68
2022-11-04T17:06:54.014Z,0.80
2022-11-04T17:09:37.227Z,0.85
2022-11-04T17:12:11.376Z,0.63
2022-11-04T17:14:54.568Z,0.60
2022-11-04T17:17:51.092Z,0.28
2022-11-04T17:20:32.863Z,0.57
2022-11-04T17:23:04.452Z,0.70
2022-11-04T17:25:33.494Z,0.63
2022-11-04T17:31:03.647Z,0.70
2022-11-04T17:33:39.830Z,0.65
2022-11-04T17:36:24.140Z,0.65
2022-11-04T17:39:03.219Z,0.50
2022-11-04T17:41:51.450Z,0.57
2022-11-04T17:44:22.535Z,0.75
2022-11-04T17:47:00.283Z,1.75
2022-11-04T17:49:46.724Z,0.90
2022-11-04T17:52:36.244Z,0.65
2022-11-04T17:55:35.287Z,1.20
2022-11-04T17:58:26.120Z,1.33
2022-11-04T18:01:05.924Z,0.47
2022-11-04T18:03:43.652Z,0.55
2022-11-04T18:06:25.509Z,0.70
2022-11-04T18:09:02.265Z,0.47
2022-11-04T18:11:52.683Z,1.05
2022-11-04T18:17:29.928Z,1.00
2022-11-04T18:20:00.287Z,0.68
2022-11-04T18:23:02.002Z,1.15
2022-11-04T18:25:50.556Z,0.50
2022-11-04T18:34:47.633Z,1.13
2022-11-04T18:40:17.592Z,1.17
2022-11-04T18:43:08.949Z,0.90
2022-11-04T18:45:47.011Z,1.00
2022-11-04T18:48:30.210Z,1.13
2022-11-04T18:51:05.414Z,0.82
2022-11-04T18:53:55.136Z,0.90
2022-11-04T18:56:32.681Z,0.60
2022-11-04T18:59:10.137Z,1.23
2022-11-04T19:01:54.158Z,0.80
2022-11-04T19:04:39.024Z,1.40
2022-11-04T19:07:33.286Z,1.35
2022-11-04T19:10:31.545Z,1.20
2022-11-04T19:13:34.691Z,1.40
2022-11-04T19:16:42.434Z,1.27
2022-11-04T19:19:28.651Z,1.00
2022-11-04T19:22:10.071Z,1.65
2022-11-04T19:25:01.695Z,1.33
2022-11-04T19:27:40.577Z,1.50
2022-11-04T19:30:36.087Z,0.90
2022-11-04T19:36:00.983Z,1.48
2022-11-04T19:38:49.127Z,0.80
2022-11-04T19:41:59.892Z,1.60
2022-11-04T19:44:37.760Z,1.15
2022-11-04T19:47:06.413Z,1.48
2022-11-04T19:49:57.890Z,1.58
2022-11-04T19:52:36.173Z,1.30
2022-11-04T19:55:14.803Z,1.42
2022-11-04T19:58:11.198Z,1.92
2022-11-04T20:00:55.146Z,2.10
2022-11-04T20:03:57.267Z,1.83
2022-11-04T20:06:48.326Z,2.53
2022-11-04T20:09:50.966Z,1.40
2022-11-04T20:12:56.651Z,1.38
2022-11-04T20:15:34.078Z,1.30
2022-11-04T20:18:02.348Z,1.30
2022-11-04T20:21:09.917Z,1.83
2022-11-04T20:24:03.879Z,1.55
2022-11-04T20:26:45.986Z,1.35
2022-11-04T20:29:47.909Z,1.08
2022-11-04T20:32:36.186Z,1.27
2022-11-04T20:35:26.441Z,1.40
2022-11-04T20:37:54.849Z,1.50
2022-11-04T20:40:42.058Z,1.50
2022-11-04T20:43:27.758Z,1.20
2022-11-04T20:45:58.439Z,1.40
2022-11-04T20:48:46.943Z,2.22
2022-11-04T20:51:39.895Z,1.40
2022-11-04T20:54:31.179Z,1.65
2022-11-04T20:57:36.247Z,1.88
2022-11-04T21:00:34.058Z,1.30
2022-11-04T21:03:13.872Z,1.63
2022-11-04T21:05:52.938Z,1.30
2022-11-04T21:08:30.994Z,1.50
2022-11-04T21:10:59.365Z,1.67
2022-11-04T21:13:59.656Z,1.60
2022-11-04T21:17:11.946Z,1.77
2022-11-04T21:20:09.672Z,1.38
2022-11-04T21:22:37.940Z,1.45
2022-11-04T21:25:21.431Z,2.03
2022-11-04T21:28:10.793Z,1.88
2022-11-04T21:30:46.103Z,1.35
2022-11-04T21:33:52.775Z,2.60
2022-11-04T21:36:38.999Z,2.67
2022-11-04T21:39:28.607Z,2.30
2022-11-04T21:42:17.915Z,1.95
2022-11-04T21:45:20.557Z,1.35
2022-11-04T21:48:17.481Z,2.00
2022-11-04T21:50:55.402Z,1.50
2022-11-04T21:53:33.999Z,1.65
2022-11-04T21:56:23.067Z,1.50
2022-11-04T21:59:05.143Z,1.75
2022-11-04T22:01:48.249Z,1.40
2022-11-04T22:07:49.838Z,1.90
2022-11-04T22:10:21.791Z,1.48
2022-11-04T22:12:59.345Z,1.60
2022-11-04T22:16:00.137Z,1.17
2022-11-04T22:18:54.825Z,1.35
2022-11-04T22:21:41.067Z,3.45
2022-11-04T22:24:44.893Z,14.98
2022-11-04T22:27:39.651Z,8.55
2022-11-04T22:30:23.486Z,2.35
2022-11-04T22:33:03.112Z,2.08
2022-11-04T22:36:08.681Z,1.55
2022-11-04T22:38:54.935Z,2.13
2022-11-04T22:42:00.943Z,1.85
2022-11-04T22:44:29.365Z,1.33
2022-11-04T22:47:03.973Z,1.40
2022-11-04T22:50:05.196Z,1.48
2022-11-04T22:52:56.877Z,1.60
2022-11-04T22:55:44.315Z,1.10
2022-11-04T22:58:24.509Z,1.42
2022-11-04T23:01:17.387Z,2.38
2022-11-04T23:03:51.805Z,1.35
2022-11-04T23:06:23.233Z,1.40
2022-11-04T23:09:00.021Z,1.02
2022-11-04T23:12:12.843Z,1.05
2022-11-04T23:15:04.636Z,1.08
2022-11-04T23:17:56.641Z,1.38
2022-11-04T23:20:31.354Z,1.30
2022-11-04T23:23:26.359Z,1.27
2022-11-04T23:26:27.571Z,1.20
2022-11-04T23:29:51.604Z,1.27
2022-11-04T23:32:31.605Z,1.40
2022-11-04T23:35:41.398Z,1.20
2022-11-04T23:38:29.562Z,1.55
2022-11-04T23:41:27.904Z,1.10
2022-11-04T23:44:34.733Z,0.90
2022-11-04T23:47:36.721Z,1.38
2022-11-04T23:53:42.333Z,1.70
2022-11-04T23:56:31.041Z,1.20
2022-11-04T23:59:32.280Z,1.40
